Date,TemperatureHighF,TemperatureAvgF,TemperatureLowF,DewpointHighF,DewpointAvgF,DewpointLowF,HumidityHigh,HumidityAvg,HumidityLow,PressureMaxIn,PressureMinIn,WindSpeedMaxMPH,WindSpeedAvgMPH,GustSpeedMaxMPH,PrecipitationSumIn
2014-1-1,36,34,25,34,31,22,94,90,85,29.45,29.03,9,2,17,0.00
2014-1-2,34,30,26,31,27,23,93,89,85,30.01,29.46,0,0,0,0.00
2014-1-3,32,30,27,31,29,24,95,94,87,30.19,30.01,0,0,0,0.00
2014-1-4,34,31,30,30,28,28,95,89,85,30.16,29.43,1,0,10,0.00
2014-1-5,36,33,28,33,30,26,95,90,83,29.64,29.36,12,2,20,0.00
2014-1-6,38,30,23,34,28,-20,94,91,81,29.64,29.59,4,1,6,0.00
2014-1-7,31,27,23,29,25,19,94,93,92,29.61,29.33,3,0,4,0.00
2014-1-8,34,30,24,29,26,22,94,86,77,29.34,29.18,5,1,11,0.00
2014-1-9,29,26,22,27,24,21,94,93,92,29.35,29.17,2,0,4,0.00
2014-1-10,27,26,25,26,24,23,94,94,93,29.39,29.26,2,0,4,0.00
2014-1-11,26,22,18,24,20,15,94,92,88,29.27,29.07,4,1,8,0.00
2014-1-12,18,14,8,15,11,5,89,87,84,29.36,29.05,5,1,8,0.00
2014-1-13,22,19,14,19,16,11,92,90,87,29.55,29.02,12,2,17,0.00
2014-1-14,33,28,20,30,24,17,92,86,74,29.53,28.77,15,4,27,0.00
2014-1-15,33,30,27,30,27,22,95,88,76,29.62,29.51,11,3,17,0.00
2014-1-16,34,32,30,32,30,28,95,94,92,29.65,29.32,10,2,17,0.00
2014-1-17,42,38,34,39,36,32,93,89,83,29.48,29.01,11,3,21,0.00
2014-1-18,39,35,32,35,30,-18,93,83,10,29.73,29.01,14,4,22,0.00
2014-1-19,35,31,25,29,25,-17,86,78,10,29.80,29.65,33,4,108,0.00
2014-1-20,47,43,34,34,31,29,83,63,51,29.74,29.50,11,4,17,0.00
2014-1-21,44,39,34,38,34,-15,94,82,62,29.61,29.29,11,2,17,0.00
2014-1-22,42,38,32,36,34,31,95,87,76,29.62,29.41,10,3,17,0.00
2014-1-23,42,38,33,41,37,29,97,94,86,29.71,29.40,7,1,13,0.00
2014-1-24,47,38,33,43,36,32,96,93,83,30.07,29.47,6,1,9,0.00
2014-1-25,43,38,34,37,35,33,97,89,73,30.06,29.86,9,3,17,0.00
2014-1-26,50,46,39,38,35,32,74,65,52,29.91,29.79,53,5,53,0.00
2014-1-27,55,45,42,38,33,31,74,63,50,29.80,29.55,31,3,31,0.00
2014-1-28,47,41,35,38,32,27,90,72,55,29.97,29.80,6,1,99,0.00
2014-1-29,41,37,32,30,28,26,84,70,59,30.11,29.96,7,2,11,0.00
2014-1-30,35,29,20,27,22,15,88,77,58,30.19,30.10,4,1,10,0.00
2014-1-31,31,22,16,20,17,14,89,81,63,30.26,30.17,4,1,7,0.00
2014-2-1,30,21,13,22,15,10,89,79,57,30.37,30.26,4,1,7,0.00
2014-2-2,26,18,12,20,14,10,89,85,73,30.36,30.32,4,1,7,0.00
2014-2-3,31,27,17,21,17,14,90,69,55,30.50,30.35,9,2,14,0.00
2014-2-4,36,27,18,20,16,12,75,62,50,30.71,30.49,6,1,9,0.00
2014-2-5,31,20,11,18,11,7,86,70,45,30.70,30.54,5,1,7,0.00
2014-2-6,31,18,8,22,12,4,87,78,56,30.54,29.64,17,2,30,0.00
2014-2-7,28,25,24,13,5,4,54,43,40,29.66,29.58,25,15,40,0.00
2014-2-11,24,13,-2,6,0,-7,78,58,39,29.69,29.43,4,1,8,0.00
2014-2-12,15,5,-4,3,-5,-10,80,64,42,29.43,28.99,9,2,14,0.00
2014-2-13,12,5,-1,3,-1,-9,79,73,59,28.99,28.88,6,1,11,0.00
2014-2-14,8,8,8,3,3,3,78,78,78,28.95,28.95,2,2,5,0.00
2014-2-15,8,8,8,3,3,3,78,78,78,28.95,28.95,2,2,5,0.00
2014-2-16,8,8,8,3,3,3,78,78,78,28.95,28.95,2,2,5,0.00
2014-2-17,8,8,8,3,3,3,78,78,78,28.95,28.95,2,2,5,0.00